createdAt,value
2023-02-09T00:01:20.775Z,96621.88
2023-02-09T00:03:47.384Z,96626.16
2023-02-09T00:06:17.588Z,96614.63
2023-02-09T00:08:44.801Z,96618.16
2023-02-09T00:11:18.664Z,96622.28
2023-02-09T00:13:45.464Z,96622.03
2023-02-09T00:16:12.152Z,96626.81
2023-02-09T00:18:38.716Z,96626.31
2023-02-09T00:21:08.752Z,96632.56
2023-02-09T00:23:38.691Z,96636.84
2023-02-09T00:26:08.797Z,96646.63
2023-02-09T00:28:36.021Z,96643.59
2023-02-09T00:31:10.644Z,96636.56
2023-02-09T00:33:39.911Z,96643.38
2023-02-09T00:36:12.309Z,96640.19
2023-02-09T00:38:39.204Z,96636.06
2023-02-09T00:41:06.372Z,96625.44
2023-02-09T00:43:33.569Z,96622.44
2023-02-09T00:46:00.257Z,96623.50
2023-02-09T00:48:27.282Z,96616.06
2023-02-09T00:50:54.363Z,96615.91
2023-02-09T00:53:22.442Z,96611.31
2023-02-09T00:55:49.656Z,96618.97
2023-02-09T00:58:17.100Z,96609.19
2023-02-09T01:00:43.852Z,96609.97
2023-02-09T01:03:11.112Z,96609.94
2023-02-09T01:05:42.142Z,96605.69
2023-02-09T01:08:08.910Z,96604.69
2023-02-09T01:10:35.578Z,96604.97
2023-02-09T01:13:03.231Z,96605.34
2023-02-09T01:15:29.778Z,96604.09
2023-02-09T01:17:57.972Z,96600.94
2023-02-09T01:20:25.654Z,96612.09
2023-02-09T01:22:52.871Z,96611.53
2023-02-09T01:25:19.499Z,96603.47
2023-02-09T01:27:46.036Z,96618.34
2023-02-09T01:30:13.095Z,96618.00
2023-02-09T01:32:39.604Z,96606.16
2023-02-09T01:35:06.685Z,96612.75
2023-02-09T01:37:34.679Z,96608.41
2023-02-09T01:40:01.880Z,96612.84
2023-02-09T01:42:28.728Z,96614.25
2023-02-09T01:45:21.414Z,96609.69
2023-02-09T01:47:56.980Z,96613.63
2023-02-09T01:50:26.040Z,96615.41
2023-02-09T01:52:53.135Z,96607.94
2023-02-09T01:55:25.171Z,96602.88
2023-02-09T01:58:03.667Z,96602.19
2023-02-09T02:00:30.264Z,96604.28
2023-02-09T02:03:02.127Z,96593.88
2023-02-09T02:05:29.888Z,96595.31
2023-02-09T02:08:09.023Z,96590.38
2023-02-09T02:10:35.607Z,96593.38
2023-02-09T02:13:02.976Z,96585.03
2023-02-09T02:16:03.738Z,96591.19
2023-02-09T02:18:33.408Z,96589.75
2023-02-09T02:21:18.107Z,96591.66
2023-02-09T02:24:29.800Z,96594.88
2023-02-09T02:27:09.723Z,96597.91
2023-02-09T02:30:06.237Z,96590.97
2023-02-09T02:32:32.700Z,96590.63
2023-02-09T02:35:16.749Z,96585.06
2023-02-09T02:37:55.638Z,96591.47
2023-02-09T02:40:41.072Z,96582.41
2023-02-09T02:43:20.629Z,96576.34
2023-02-09T02:46:10.947Z,96573.94
2023-02-09T02:48:53.101Z,96590.44
2023-02-09T02:51:28.258Z,96583.84
2023-02-09T02:53:58.223Z,96593.41
2023-02-09T02:56:30.348Z,96581.94
2023-02-09T02:58:59.784Z,96585.69
2023-02-09T03:01:33.996Z,96583.50
2023-02-09T03:04:03.698Z,96591.69
2023-02-09T03:06:33.434Z,96593.50
2023-02-09T03:09:00.118Z,96589.28
2023-02-09T03:11:35.940Z,96588.03
2023-02-09T03:14:20.807Z,96586.47
2023-02-09T03:16:59.872Z,96589.69
2023-02-09T03:19:41.045Z,96585.00
2023-02-09T03:22:23.060Z,96579.88
2023-02-09T03:25:00.044Z,96585.06
2023-02-09T03:27:41.115Z,96579.09
2023-02-09T03:30:11.478Z,96576.34
2023-02-09T03:32:40.763Z,96589.19
2023-02-09T03:35:10.281Z,96587.00
2023-02-09T03:37:36.804Z,96592.88
2023-02-09T03:40:03.633Z,96582.28
2023-02-09T03:42:30.207Z,96581.41
2023-02-09T03:44:56.870Z,96580.03
2023-02-09T03:47:23.407Z,96575.72
2023-02-09T03:49:50.034Z,96577.13
2023-02-09T03:52:17.352Z,96581.06
2023-02-09T03:54:44.233Z,96576.44
2023-02-09T03:57:11.041Z,96581.56
2023-02-09T03:59:38.038Z,96586.88
2023-02-09T04:02:06.886Z,96583.50
2023-02-09T04:04:33.793Z,96587.88
2023-02-09T04:07:00.320Z,96585.16
2023-02-09T04:09:28.109Z,96590.31
2023-02-09T04:11:55.931Z,96595.50
2023-02-09T04:14:22.687Z,96589.50
2023-02-09T04:16:49.242Z,96582.59
2023-02-09T04:19:15.862Z,96584.44
2023-02-09T04:21:42.430Z,96588.75
2023-02-09T04:24:09.275Z,96589.50
2023-02-09T04:26:36.077Z,96592.47
2023-02-09T04:29:03.050Z,96585.63
2023-02-09T04:31:30.534Z,96587.13
2023-02-09T04:33:57.115Z,96592.25
2023-02-09T04:36:23.693Z,96589.59
2023-02-09T04:38:50.493Z,96592.34
2023-02-09T04:41:17.123Z,96590.44
2023-02-09T04:43:43.751Z,96589.81
2023-02-09T04:46:14.837Z,96587.88
2023-02-09T04:48:41.993Z,96582.03
2023-02-09T04:51:09.065Z,96586.59
2023-02-09T04:53:36.004Z,96595.53
2023-02-09T04:56:02.575Z,96594.19
2023-02-09T04:58:47.674Z,96592.66
2023-02-09T05:01:19.387Z,96596.94
2023-02-09T05:03:46.037Z,96601.44
2023-02-09T05:06:12.659Z,96598.56
2023-02-09T05:08:39.187Z,96598.72
2023-02-09T05:11:06.266Z,96599.31
2023-02-09T05:13:32.800Z,96602.00
2023-02-09T05:15:59.298Z,96613.03
2023-02-09T05:18:25.940Z,96610.09
2023-02-09T05:20:52.633Z,96618.81
2023-02-09T05:23:19.318Z,96612.41
2023-02-09T05:25:47.247Z,96614.88
2023-02-09T05:28:14.234Z,96611.88
2023-02-09T05:30:40.857Z,96614.41
2023-02-09T05:33:07.529Z,96615.97
2023-02-09T05:35:34.146Z,96626.22
2023-02-09T05:38:01.129Z,96628.84
2023-02-09T05:40:27.658Z,96629.78
2023-02-09T05:42:54.928Z,96630.72
2023-02-09T05:45:23.190Z,96642.38
2023-02-09T05:47:49.750Z,96629.00
2023-02-09T05:50:16.733Z,96626.50
2023-02-09T05:52:43.282Z,96617.25
2023-02-09T05:55:09.805Z,96626.34
2023-02-09T05:57:36.456Z,96618.59
2023-02-09T06:00:04.894Z,96624.22
2023-02-09T06:02:38.756Z,96627.38
2023-02-09T06:05:05.780Z,96626.28
2023-02-09T06:07:32.377Z,96635.06
2023-02-09T06:09:58.897Z,96627.22
2023-02-09T06:12:25.666Z,96628.75
2023-02-09T06:14:52.188Z,96633.88
2023-02-09T06:17:18.742Z,96633.66
2023-02-09T06:19:45.282Z,96633.69
2023-02-09T06:22:11.819Z,96635.22
2023-02-09T06:24:38.382Z,96637.09
2023-02-09T06:27:04.967Z,96635.00
2023-02-09T06:29:31.601Z,96637.63
2023-02-09T06:31:58.281Z,96642.78
2023-02-09T06:34:25.682Z,96643.06
2023-02-09T06:36:52.263Z,96647.81
2023-02-09T06:39:18.810Z,96648.69
2023-02-09T06:41:45.690Z,96653.59
2023-02-09T06:44:13.027Z,96651.72
2023-02-09T06:46:39.741Z,96661.28
2023-02-09T06:49:06.485Z,96661.75
2023-02-09T06:51:33.181Z,96667.28
2023-02-09T06:53:59.955Z,96666.66
2023-02-09T06:56:26.472Z,96660.94
2023-02-09T06:58:53.252Z,96666.03
2023-02-09T07:01:19.879Z,96667.50
2023-02-09T07:03:46.438Z,96670.06
2023-02-09T07:06:16.077Z,96672.19
2023-02-09T07:08:43.379Z,96670.78
2023-02-09T07:11:12.703Z,96671.56
2023-02-09T07:13:39.441Z,96667.31
2023-02-09T07:16:08.314Z,96669.63
2023-02-09T07:18:35.594Z,96667.28
2023-02-09T07:21:11.295Z,96673.44
2023-02-09T07:23:38.982Z,96678.00
2023-02-09T07:26:08.025Z,96683.38
2023-02-09T07:28:36.010Z,96683.63
2023-02-09T07:31:05.198Z,96678.47
2023-02-09T07:33:32.565Z,96680.19
2023-02-09T07:35:59.423Z,96682.66
2023-02-09T07:38:26.220Z,96675.63
2023-02-09T07:40:53.143Z,96672.84
2023-02-09T07:43:19.817Z,96671.56
2023-02-09T07:45:46.867Z,96675.97
2023-02-09T07:48:13.679Z,96673.44
2023-02-09T07:50:40.573Z,96674.38
2023-02-09T07:53:07.931Z,96675.47
2023-02-09T07:55:34.426Z,96678.16
2023-02-09T07:58:01.070Z,96679.13
2023-02-09T08:00:27.715Z,96676.50
2023-02-09T08:02:54.923Z,96680.81
2023-02-09T08:05:28.212Z,96670.94
2023-02-09T08:07:55.978Z,96668.16
2023-02-09T08:10:23.215Z,96676.34
2023-02-09T08:13:02.897Z,96672.84
2023-02-09T08:15:41.769Z,96678.81
2023-02-09T08:18:22.905Z,96669.75
2023-02-09T08:20:51.991Z,96679.06
2023-02-09T08:23:26.756Z,96667.81
2023-02-09T08:25:54.342Z,96671.50
2023-02-09T08:28:22.734Z,96664.94
2023-02-09T08:30:52.038Z,96665.94
2023-02-09T08:33:18.612Z,96659.41
2023-02-09T08:35:45.648Z,96665.25
2023-02-09T08:38:12.379Z,96660.69
2023-02-09T08:40:41.334Z,96661.84
2023-02-09T08:43:08.502Z,96664.81
2023-02-09T08:45:36.865Z,96662.69
2023-02-09T08:48:04.408Z,96664.63
2023-02-09T08:50:30.956Z,96652.91
2023-02-09T08:52:57.901Z,96661.38
2023-02-09T08:55:24.660Z,96660.97
2023-02-09T08:57:51.326Z,96663.75
2023-02-09T09:00:18.430Z,96662.53
2023-02-09T09:02:45.000Z,96667.34
2023-02-09T09:05:11.718Z,96659.03
2023-02-09T09:07:38.280Z,96666.19
2023-02-09T09:10:05.885Z,96668.41
2023-02-09T09:12:32.436Z,96667.09
2023-02-09T09:14:58.959Z,96651.53
2023-02-09T09:17:25.585Z,96653.53
2023-02-09T09:19:56.309Z,96653.94
2023-02-09T09:22:23.608Z,96663.22
2023-02-09T09:24:50.191Z,96654.50
2023-02-09T09:27:16.719Z,96656.97
2023-02-09T09:29:43.228Z,96662.41
2023-02-09T09:32:15.883Z,96655.59
2023-02-09T09:34:43.410Z,96662.66
2023-02-09T09:37:10.010Z,96668.19
2023-02-09T09:39:36.527Z,96664.53
2023-02-09T09:42:05.999Z,96664.38
2023-02-09T09:44:38.024Z,96666.25
2023-02-09T09:47:10.428Z,96674.16
2023-02-09T09:49:37.890Z,96676.88
2023-02-09T09:52:31.994Z,96681.22
2023-02-09T09:55:01.321Z,96675.56
2023-02-09T09:57:30.274Z,96678.41
2023-02-09T09:59:57.581Z,96688.13
2023-02-09T10:02:31.721Z,96685.66
2023-02-09T10:05:18.420Z,96680.56
2023-02-09T10:07:53.817Z,96681.28
2023-02-09T10:10:47.978Z,96680.69
2023-02-09T10:13:33.707Z,96673.84
2023-02-09T10:16:01.066Z,96680.38
2023-02-09T10:18:30.122Z,96676.38
2023-02-09T10:21:08.617Z,96681.84
2023-02-09T10:23:43.069Z,96676.59
2023-02-09T10:26:09.586Z,96679.09
2023-02-09T10:28:49.171Z,96668.63
2023-02-09T10:31:19.383Z,96665.13
2023-02-09T10:33:50.296Z,96671.00
2023-02-09T10:36:27.650Z,96658.63
2023-02-09T10:39:19.171Z,96657.69
2023-02-09T10:41:50.032Z,96649.66
2023-02-09T10:44:26.847Z,96649.53
2023-02-09T10:47:19.609Z,96647.59
2023-02-09T10:50:10.581Z,96637.84
2023-02-09T10:52:42.168Z,96645.56
2023-02-09T10:55:24.413Z,96637.03
2023-02-09T10:57:51.021Z,96638.50
2023-02-09T11:00:17.494Z,96630.50
2023-02-09T11:02:52.975Z,96631.19
2023-02-09T11:05:22.513Z,96639.00
2023-02-09T11:08:05.522Z,96629.19
2023-02-09T11:10:35.464Z,96620.41
2023-02-09T11:13:02.622Z,96612.91
2023-02-09T11:15:40.739Z,96606.06
2023-02-09T11:18:16.896Z,96606.66
2023-02-09T11:21:13.681Z,96602.91
2023-02-09T11:23:58.748Z,96613.63
2023-02-09T11:27:17.995Z,96607.44
2023-02-09T11:30:02.541Z,96603.44
2023-02-09T11:32:41.871Z,96588.44
2023-02-09T11:35:12.224Z,96585.88
2023-02-09T11:38:01.659Z,96591.44
2023-02-09T11:40:45.943Z,96587.13
2023-02-09T11:43:17.635Z,96583.47
2023-02-09T11:45:47.584Z,96582.50
2023-02-09T11:48:25.711Z,96586.28
2023-02-09T11:51:16.407Z,96576.13
2023-02-09T11:54:07.434Z,96594.03
2023-02-09T11:56:41.662Z,96584.69
2023-02-09T11:59:18.778Z,96584.69
2023-02-09T12:02:24.565Z,96582.53
2023-02-09T12:04:51.119Z,96583.47
2023-02-09T12:07:23.914Z,96583.28
2023-02-09T12:09:59.365Z,96582.81
2023-02-09T12:12:32.957Z,96581.16
2023-02-09T12:15:15.983Z,96578.78
2023-02-09T12:17:53.942Z,96574.53
2023-02-09T12:20:29.438Z,96573.34
2023-02-09T12:23:25.356Z,96569.25
2023-02-09T12:26:00.876Z,96556.94
2023-02-09T12:28:27.447Z,96566.72
2023-02-09T12:30:58.144Z,96555.53
2023-02-09T12:33:24.677Z,96547.88
2023-02-09T12:36:07.854Z,96534.63
2023-02-09T12:39:04.669Z,96534.13
2023-02-09T12:41:34.563Z,96536.00
2023-02-09T12:44:10.459Z,96536.84
2023-02-09T12:46:51.901Z,96542.22
2023-02-09T12:49:27.550Z,96541.13
2023-02-09T12:52:03.195Z,96537.25
2023-02-09T12:54:46.886Z,96553.72
2023-02-09T12:57:16.409Z,96534.50
2023-02-09T13:00:03.653Z,96522.50
2023-02-09T13:02:49.931Z,96527.00
2023-02-09T13:05:27.366Z,96527.63
2023-02-09T13:08:18.300Z,96526.34
2023-02-09T13:10:50.886Z,96525.56
2023-02-09T13:13:24.205Z,96525.22
2023-02-09T13:15:50.690Z,96527.72
2023-02-09T13:18:23.300Z,96531.50
2023-02-09T13:20:59.569Z,96538.72
2023-02-09T13:23:35.154Z,96536.63
2023-02-09T13:26:16.724Z,96541.28
2023-02-09T13:28:43.581Z,96540.91
2023-02-09T13:31:23.650Z,96528.31
2023-02-09T13:33:55.861Z,96520.72
2023-02-09T13:36:38.493Z,96515.22
2023-02-09T13:39:16.765Z,96520.28
2023-02-09T13:41:44.714Z,96517.09
2023-02-09T13:44:26.630Z,96506.22
2023-02-09T13:47:01.974Z,96519.50
2023-02-09T13:49:30.049Z,96526.41
2023-02-09T13:52:15.245Z,96526.25
2023-02-09T13:54:43.939Z,96530.16
2023-02-09T13:57:35.785Z,96530.72
2023-02-09T14:00:21.675Z,96541.63
2023-02-09T14:02:54.007Z,96543.50
2023-02-09T14:05:29.541Z,96540.59
2023-02-09T14:07:56.564Z,96533.44
2023-02-09T14:10:25.777Z,96539.41
2023-02-09T14:13:10.180Z,96538.78
2023-02-09T14:16:04.083Z,96542.63
2023-02-09T14:18:47.695Z,96545.03
2023-02-09T14:21:23.478Z,96539.47
2023-02-09T14:24:26.295Z,96543.47
2023-02-09T14:26:54.554Z,96547.75
2023-02-09T14:29:30.688Z,96539.00
2023-02-09T14:32:32.021Z,96543.28
2023-02-09T14:34:59.371Z,96538.34
2023-02-09T14:37:29.528Z,96550.88
2023-02-09T14:40:20.920Z,96548.31
2023-02-09T14:43:02.678Z,96549.72
2023-02-09T14:45:47.873Z,96555.81
2023-02-09T14:48:28.932Z,96553.09
2023-02-09T14:50:58.062Z,96541.28
2023-02-09T14:53:28.282Z,96541.47
2023-02-09T14:55:55.968Z,96540.34
2023-02-09T14:58:28.304Z,96543.38
2023-02-09T15:01:00.028Z,96539.22
2023-02-09T15:03:27.571Z,96549.09
2023-02-09T15:06:03.187Z,96550.06
2023-02-09T15:08:33.112Z,96541.16
2023-02-09T15:11:02.718Z,96541.63
2023-02-09T15:13:31.178Z,96543.50
2023-02-09T15:15:57.752Z,96543.34
2023-02-09T15:18:26.382Z,96544.56
2023-02-09T15:20:53.202Z,96553.53
2023-02-09T15:23:19.777Z,96556.91
2023-02-09T15:25:46.698Z,96559.69
2023-02-09T15:28:28.986Z,96559.50
2023-02-09T15:30:57.218Z,96569.72
2023-02-09T15:33:26.072Z,96564.47
2023-02-09T15:35:52.772Z,96576.41
2023-02-09T15:38:19.798Z,96581.69
2023-02-09T15:41:06.637Z,96579.09
2023-02-09T15:43:52.101Z,96579.53
2023-02-09T15:46:38.089Z,96579.16
2023-02-09T15:49:05.632Z,96584.16
2023-02-09T15:51:36.479Z,96591.88
2023-02-09T15:54:16.021Z,96596.38
2023-02-09T15:56:42.674Z,96586.38
2023-02-09T15:59:17.920Z,96598.53
2023-02-09T16:01:44.939Z,96606.38
2023-02-09T16:04:14.381Z,96599.19
2023-02-09T16:06:51.196Z,96604.03
2023-02-09T16:09:21.832Z,96609.63
2023-02-09T16:11:48.620Z,96613.00
2023-02-09T16:14:20.791Z,96618.66
2023-02-09T16:16:47.739Z,96618.84
2023-02-09T16:19:14.481Z,96626.41
2023-02-09T16:21:47.837Z,96625.28
2023-02-09T16:24:45.062Z,96632.78
2023-02-09T16:27:17.580Z,96635.50
2023-02-09T16:29:44.231Z,96632.84
2023-02-09T16:32:16.663Z,96641.75
2023-02-09T16:34:44.348Z,96643.91
2023-02-09T16:37:29.031Z,96653.31
2023-02-09T16:39:57.997Z,96661.72
2023-02-09T16:42:25.430Z,96655.94
2023-02-09T16:44:52.973Z,96656.75
2023-02-09T16:47:23.448Z,96660.59
2023-02-09T16:49:59.457Z,96661.56
2023-02-09T16:52:27.312Z,96660.56
2023-02-09T16:54:58.152Z,96679.38
2023-02-09T16:57:26.601Z,96684.25
2023-02-09T16:59:54.230Z,96685.00
2023-02-09T17:02:34.897Z,96691.69
2023-02-09T17:05:13.563Z,96692.25
2023-02-09T17:07:53.664Z,96690.69
2023-02-09T17:10:24.203Z,96698.91
2023-02-09T17:12:53.223Z,96694.88
2023-02-09T17:15:29.997Z,96707.88
2023-02-09T17:18:06.811Z,96709.94
2023-02-09T17:20:41.077Z,96710.06
2023-02-09T17:23:10.112Z,96717.84
2023-02-09T17:25:36.716Z,96719.25
2023-02-09T17:28:03.371Z,96719.75
2023-02-09T17:30:32.806Z,96718.69
2023-02-09T17:33:02.949Z,96717.00
2023-02-09T17:35:58.006Z,96717.78
2023-02-09T17:38:22.653Z,96717.47
2023-02-09T17:40:50.748Z,96726.91
2023-02-09T17:43:18.032Z,96726.69
2023-02-09T17:45:49.486Z,96724.34
2023-02-09T17:48:19.884Z,96732.06
2023-02-09T17:50:52.536Z,96727.03
2023-02-09T17:53:24.737Z,96735.09
2023-02-09T17:55:53.904Z,96738.50
2023-02-09T17:58:20.477Z,96741.78
2023-02-09T18:00:47.051Z,96739.09
2023-02-09T18:03:19.164Z,96738.94
2023-02-09T18:05:50.592Z,96738.84
2023-02-09T18:08:18.665Z,96754.22
2023-02-09T18:10:45.226Z,96754.50
2023-02-09T18:13:20.310Z,96751.06
2023-02-09T18:15:48.765Z,96751.06
2023-02-09T18:18:15.484Z,96752.75
2023-02-09T18:20:42.475Z,96765.50
2023-02-09T18:23:14.783Z,96765.50
2023-02-09T18:25:41.373Z,96761.53
2023-02-09T18:28:07.977Z,96761.75
2023-02-09T18:30:39.030Z,96762.13
2023-02-09T18:33:07.102Z,96758.78
2023-02-09T18:35:36.831Z,96761.63
2023-02-09T18:38:05.609Z,96758.34
2023-02-09T18:40:32.508Z,96750.91
2023-02-09T18:43:00.636Z,96760.94
2023-02-09T18:45:28.521Z,96761.63
2023-02-09T18:47:55.207Z,96760.03
2023-02-09T18:50:27.179Z,96758.69
2023-02-09T18:52:56.535Z,96760.44
2023-02-09T18:55:25.566Z,96764.78
2023-02-09T18:57:52.433Z,96775.00
2023-02-09T19:00:20.344Z,96774.41
2023-02-09T19:02:48.079Z,96766.63
2023-02-09T19:05:16.600Z,96777.78
2023-02-09T19:07:43.847Z,96771.69
2023-02-09T19:10:14.105Z,96774.19
2023-02-09T19:12:41.437Z,96776.94
2023-02-09T19:15:08.653Z,96785.13
2023-02-09T19:17:35.371Z,96782.63
2023-02-09T19:20:04.220Z,96779.09
2023-02-09T19:22:31.434Z,96779.94
2023-02-09T19:24:58.398Z,96787.47
2023-02-09T19:27:26.873Z,96776.03
2023-02-09T19:29:55.622Z,96787.31
2023-02-09T19:32:23.388Z,96791.03
2023-02-09T19:34:51.259Z,96794.91
2023-02-09T19:37:20.718Z,96788.38
2023-02-09T19:40:00.335Z,96790.56
2023-02-09T19:42:26.865Z,96784.31
2023-02-09T19:44:54.437Z,96786.16
2023-02-09T19:47:27.520Z,96783.66
2023-02-09T19:49:58.214Z,96789.84
2023-02-09T19:52:26.189Z,96791.50
2023-02-09T19:54:52.760Z,96787.13
2023-02-09T19:57:20.739Z,96796.69
2023-02-09T19:59:47.734Z,96783.97
2023-02-09T20:02:15.894Z,96787.66
2023-02-09T20:04:43.096Z,96787.41
2023-02-09T20:07:10.803Z,96787.53
2023-02-09T20:09:37.481Z,96790.13
2023-02-09T20:12:04.618Z,96796.78
2023-02-09T20:14:33.477Z,96794.69
2023-02-09T20:17:00.601Z,96798.88
2023-02-09T20:19:27.596Z,96797.91
2023-02-09T20:21:54.162Z,96801.59
2023-02-09T20:24:20.747Z,96800.84
2023-02-09T20:26:48.063Z,96803.03
2023-02-09T20:29:16.649Z,96807.41
2023-02-09T20:31:43.329Z,96808.38
2023-02-09T20:34:12.754Z,96807.97
2023-02-09T20:36:41.072Z,96808.97
2023-02-09T20:39:10.828Z,96811.53
2023-02-09T20:41:37.358Z,96807.34
2023-02-09T20:44:22.478Z,96807.63
2023-02-09T20:46:58.211Z,96805.13
2023-02-09T20:49:30.976Z,96804.41
2023-02-09T20:51:58.103Z,96814.63
2023-02-09T20:54:25.083Z,96816.94
2023-02-09T20:56:51.690Z,96822.91
2023-02-09T20:59:18.265Z,96820.69
2023-02-09T21:01:45.907Z,96821.63
2023-02-09T21:04:12.604Z,96829.38
2023-02-09T21:06:39.256Z,96833.63
2023-02-09T21:09:08.214Z,96836.19
2023-02-09T21:11:34.810Z,96834.78
2023-02-09T21:14:01.432Z,96833.75
2023-02-09T21:16:28.994Z,96834.31
2023-02-09T21:18:55.511Z,96840.06
2023-02-09T21:21:22.301Z,96834.78
2023-02-09T21:23:48.890Z,96840.88
2023-02-09T21:26:17.632Z,96835.84
2023-02-09T21:28:45.232Z,96837.50
2023-02-09T21:31:14.177Z,96836.63
2023-02-09T21:33:40.774Z,96843.66
2023-02-09T21:36:07.824Z,96847.34
2023-02-09T21:38:41.357Z,96842.94
2023-02-09T21:41:09.026Z,96844.78
2023-02-09T21:43:35.658Z,96842.31
2023-02-09T21:46:02.347Z,96850.03
2023-02-09T21:48:28.904Z,96847.75
2023-02-09T21:50:55.722Z,96851.97
2023-02-09T21:53:22.380Z,96848.66
2023-02-09T21:55:48.915Z,96857.06
2023-02-09T21:58:15.468Z,96856.50
2023-02-09T22:00:42.377Z,96854.72
2023-02-09T22:03:09.466Z,96855.69
2023-02-09T22:05:35.955Z,96851.69
2023-02-09T22:08:02.475Z,96863.53
2023-02-09T22:10:29.022Z,96867.94
2023-02-09T22:12:55.553Z,96865.47
2023-02-09T22:15:22.254Z,96858.56
2023-02-09T22:17:49.170Z,96857.75
2023-02-09T22:20:15.744Z,96863.00
2023-02-09T22:22:45.184Z,96862.25
2023-02-09T22:25:11.714Z,96866.50
2023-02-09T22:27:38.309Z,96867.22
2023-02-09T22:30:05.041Z,96865.59
2023-02-09T22:32:31.608Z,96871.47
2023-02-09T22:34:58.124Z,96863.03
2023-02-09T22:37:24.703Z,96876.19
2023-02-09T22:39:51.206Z,96881.81
2023-02-09T22:42:17.728Z,96873.59
2023-02-09T22:44:44.257Z,96876.06
2023-02-09T22:47:10.863Z,96879.72
2023-02-09T22:49:37.472Z,96889.31
2023-02-09T22:52:04.089Z,96889.09
2023-02-09T22:54:30.725Z,96892.03
2023-02-09T22:56:57.243Z,96891.97
2023-02-09T22:59:23.885Z,96883.38
2023-02-09T23:01:51.009Z,96890.16
2023-02-09T23:04:17.656Z,96881.63
2023-02-09T23:06:44.343Z,96880.25
2023-02-09T23:09:12.544Z,96879.34
2023-02-09T23:11:39.171Z,96873.72
2023-02-09T23:14:10.012Z,96868.44
2023-02-09T23:16:39.502Z,96871.78
2023-02-09T23:19:08.827Z,96869.69
2023-02-09T23:21:38.230Z,96864.88
2023-02-09T23:24:05.722Z,96866.31
2023-02-09T23:26:32.966Z,96861.84
2023-02-09T23:29:01.501Z,96864.00
2023-02-09T23:31:28.808Z,96867.81
2023-02-09T23:33:55.503Z,96878.06
2023-02-09T23:36:25.031Z,96869.81
2023-02-09T23:38:57.517Z,96872.25
2023-02-09T23:41:25.024Z,96868.44
2023-02-09T23:43:52.573Z,96870.91
2023-02-09T23:46:22.504Z,96875.50
2023-02-09T23:48:49.889Z,96874.38
2023-02-09T23:51:19.802Z,96881.69
2023-02-09T23:53:47.752Z,96881.19
2023-02-09T23:56:17.290Z,96893.69
2023-02-09T23:58:47.204Z,96891.97
